createdAt,value
2023-10-06T00:00:48.902Z,4.97
2023-10-06T00:03:16.302Z,4.60
2023-10-06T00:05:45.180Z,4.80
2023-10-06T00:08:13.256Z,4.75
2023-10-06T00:10:45.929Z,4.40
2023-10-06T00:13:14.307Z,4.97
2023-10-06T00:15:41.892Z,3.85
2023-10-06T00:18:09.393Z,4.57
2023-10-06T00:20:59.016Z,4.72
2023-10-06T00:23:31.601Z,3.53
2023-10-06T00:26:00.258Z,3.88
2023-10-06T00:28:28.224Z,3.75
2023-10-06T00:30:59.292Z,3.75
2023-10-06T00:33:33.403Z,4.07
2023-10-06T00:36:11.954Z,5.03
2023-10-06T00:38:39.674Z,4.57
2023-10-06T00:41:09.872Z,4.88
2023-10-06T00:43:40.976Z,3.75
2023-10-06T00:46:08.839Z,3.92
2023-10-06T00:48:42.167Z,3.75
2023-10-06T00:51:23.422Z,6.18
2023-10-06T00:53:54.150Z,3.58
2023-10-06T00:56:24.881Z,3.67
2023-10-06T00:58:52.674Z,5.30
2023-10-06T01:01:20.995Z,3.60
2023-10-06T01:03:50.574Z,4.35
2023-10-06T01:06:24.495Z,5.32
2023-10-06T01:08:57.035Z,4.07
2023-10-06T01:11:28.224Z,3.63
2023-10-06T01:13:58.735Z,5.28
2023-10-06T01:16:36.620Z,3.53
2023-10-06T01:19:18.522Z,3.40
2023-10-06T01:21:49.244Z,3.35
2023-10-06T01:24:25.602Z,3.40
2023-10-06T01:27:00.178Z,4.38
2023-10-06T01:29:30.469Z,4.27
2023-10-06T01:31:57.990Z,4.28
2023-10-06T01:34:28.703Z,3.63
2023-10-06T01:36:55.996Z,3.67
2023-10-06T01:39:30.380Z,3.60
2023-10-06T01:41:57.727Z,3.47
2023-10-06T01:44:24.967Z,4.68
2023-10-06T01:46:55.338Z,4.55
2023-10-06T01:49:26.234Z,3.83
2023-10-06T01:54:28.940Z,4.13
2023-10-06T01:56:56.600Z,3.95
2023-10-06T01:59:23.794Z,4.15
2023-10-06T02:01:50.982Z,3.78
2023-10-06T02:04:20.377Z,4.22
2023-10-06T02:06:52.472Z,4.97
2023-10-06T02:09:19.883Z,4.55
2023-10-06T02:11:47.421Z,5.30
2023-10-06T02:14:18.590Z,4.22
2023-10-06T02:16:46.106Z,5.28
2023-10-06T02:19:17.207Z,3.55
2023-10-06T02:21:45.534Z,4.68
2023-10-06T02:24:13.901Z,4.93
2023-10-06T02:26:41.596Z,4.72
2023-10-06T02:29:23.585Z,5.50
2023-10-06T02:31:51.159Z,3.33
2023-10-06T02:34:31.029Z,4.20
2023-10-06T02:36:58.540Z,6.43
2023-10-06T02:39:29.700Z,2.78
2023-10-06T02:41:58.791Z,3.60
2023-10-06T02:44:27.313Z,3.45
2023-10-06T02:46:54.967Z,3.63
2023-10-06T02:49:32.930Z,3.63
2023-10-06T02:52:07.924Z,3.33
2023-10-06T02:54:35.360Z,4.80
2023-10-06T02:57:06.137Z,3.40
2023-10-06T02:59:35.880Z,3.20
2023-10-06T03:02:07.940Z,3.78
2023-10-06T03:04:38.099Z,3.13
2023-10-06T03:07:13.158Z,3.20
2023-10-06T03:09:45.472Z,3.28
2023-10-06T03:12:15.519Z,3.05
2023-10-06T03:14:42.893Z,3.75
2023-10-06T03:17:11.830Z,3.83
2023-10-06T03:19:42.425Z,3.45
2023-10-06T03:22:11.386Z,3.42
2023-10-06T03:24:54.442Z,3.20
2023-10-06T03:27:23.970Z,2.95
2023-10-06T03:30:08.989Z,3.28
2023-10-06T03:32:40.559Z,4.63
2023-10-06T03:35:15.597Z,3.55
2023-10-06T03:37:53.285Z,3.17
2023-10-06T03:40:24.647Z,3.00
2023-10-06T03:42:53.952Z,3.22
2023-10-06T03:45:32.697Z,4.30
2023-10-06T03:48:15.373Z,3.65
2023-10-06T03:50:46.041Z,4.47
2023-10-06T03:53:14.549Z,3.53
2023-10-06T03:55:44.065Z,3.45
2023-10-06T03:58:12.306Z,3.10
2023-10-06T04:00:41.264Z,3.38
2023-10-06T04:03:15.066Z,3.88
2023-10-06T04:05:45.555Z,3.28
2023-10-06T04:08:15.597Z,3.00
2023-10-06T04:10:43.809Z,3.38
2023-10-06T04:13:11.547Z,3.20
2023-10-06T04:15:50.135Z,3.25
2023-10-06T04:18:22.540Z,3.30
2023-10-06T04:20:50.371Z,3.38
2023-10-06T04:23:18.457Z,4.07
2023-10-06T04:25:46.599Z,3.75
2023-10-06T04:28:15.349Z,4.45
2023-10-06T04:30:43.441Z,3.53
2023-10-06T04:33:15.052Z,3.38
2023-10-06T04:35:48.826Z,3.97
2023-10-06T04:38:16.236Z,3.40
2023-10-06T04:40:43.582Z,3.30
2023-10-06T04:43:11.052Z,3.70
2023-10-06T04:45:40.078Z,4.10
2023-10-06T04:48:10.855Z,3.97
2023-10-06T04:50:38.316Z,4.57
2023-10-06T04:53:08.846Z,3.72
2023-10-06T04:55:39.233Z,3.53
2023-10-06T04:58:06.932Z,3.50
2023-10-06T05:00:34.527Z,3.20
2023-10-06T05:03:05.964Z,3.10
2023-10-06T05:05:38.999Z,4.55
2023-10-06T05:08:10.738Z,4.25
2023-10-06T05:10:38.542Z,7.00
2023-10-06T05:13:07.528Z,4.32
2023-10-06T05:15:35.944Z,4.50
2023-10-06T05:18:04.425Z,5.05
2023-10-06T05:20:32.652Z,5.40
2023-10-06T05:23:10.688Z,8.18
2023-10-06T05:25:38.444Z,4.88
2023-10-06T05:28:06.049Z,5.43
2023-10-06T05:30:33.498Z,5.28
2023-10-06T05:33:01.476Z,3.53
2023-10-06T05:35:30.560Z,3.83
2023-10-06T05:37:59.431Z,6.30
2023-10-06T05:40:30.841Z,7.35
2023-10-06T05:42:58.742Z,6.97
2023-10-06T05:45:26.013Z,5.28
2023-10-06T05:47:56.120Z,4.60
2023-10-06T05:50:30.304Z,6.63
2023-10-06T05:53:00.285Z,4.95
2023-10-06T05:55:31.734Z,4.22
2023-10-06T05:58:01.626Z,6.20
2023-10-06T06:00:32.255Z,7.07
2023-10-06T06:03:00.726Z,5.35
2023-10-06T06:05:31.314Z,4.07
2023-10-06T06:08:00.432Z,3.95
2023-10-06T06:10:30.718Z,4.82
2023-10-06T06:12:58.250Z,4.10
2023-10-06T06:15:26.273Z,4.53
2023-10-06T06:17:59.848Z,6.65
2023-10-06T06:20:27.344Z,3.95
2023-10-06T06:22:54.934Z,4.75
2023-10-06T06:25:23.042Z,5.22
2023-10-06T06:27:51.414Z,5.65
2023-10-06T06:30:19.926Z,4.68
2023-10-06T06:32:49.826Z,4.10
2023-10-06T06:35:24.150Z,6.25
2023-10-06T06:37:52.572Z,4.95
2023-10-06T06:40:23.021Z,6.72
2023-10-06T06:42:52.608Z,4.82
2023-10-06T06:45:20.321Z,5.32
2023-10-06T06:47:47.847Z,7.00
2023-10-06T06:50:16.910Z,6.13
2023-10-06T06:52:44.413Z,7.80
2023-10-06T06:55:15.295Z,6.45
2023-10-06T06:57:45.979Z,6.65
2023-10-06T07:00:18.441Z,16.00
2023-10-06T07:02:45.704Z,10.38
2023-10-06T07:05:16.857Z,10.30
2023-10-06T07:07:45.325Z,10.35
2023-10-06T07:10:21.038Z,7.88
2023-10-06T07:12:51.518Z,11.90
2023-10-06T07:15:19.612Z,7.68
2023-10-06T07:17:50.817Z,8.13
2023-10-06T07:20:19.367Z,9.52
2023-10-06T07:22:55.874Z,7.40
2023-10-06T07:25:25.525Z,7.18
2023-10-06T07:27:54.332Z,10.05
2023-10-06T07:30:23.988Z,7.75
2023-10-06T07:32:55.914Z,10.38
2023-10-06T07:35:41.857Z,8.45
2023-10-06T07:38:12.084Z,7.95
2023-10-06T07:40:39.804Z,8.85
2023-10-06T07:43:08.498Z,7.53
2023-10-06T07:45:36.842Z,8.50
2023-10-06T07:48:07.737Z,9.13
2023-10-06T07:50:35.966Z,7.68
2023-10-06T07:53:03.352Z,17.90
2023-10-06T07:55:33.130Z,8.38
2023-10-06T07:58:01.685Z,10.07
2023-10-06T08:00:29.763Z,7.90
2023-10-06T08:02:57.444Z,6.28
2023-10-06T08:05:27.027Z,7.30
2023-10-06T08:07:56.954Z,8.02
2023-10-06T08:10:24.387Z,7.90
2023-10-06T08:12:53.276Z,7.10
2023-10-06T08:15:24.022Z,6.72
2023-10-06T08:17:54.056Z,8.00
2023-10-06T08:20:21.842Z,6.20
2023-10-06T08:22:50.392Z,6.78
2023-10-06T08:25:18.825Z,8.20
2023-10-06T08:27:46.968Z,6.80
2023-10-06T08:30:18.014Z,5.88
2023-10-06T08:32:48.890Z,5.75
2023-10-06T08:35:16.793Z,7.47
2023-10-06T08:37:48.144Z,7.72
2023-10-06T08:40:20.853Z,5.47
2023-10-06T08:42:57.895Z,7.65
2023-10-06T08:45:27.210Z,7.15
2023-10-06T08:48:01.664Z,7.28
2023-10-06T08:52:58.207Z,6.85
2023-10-06T08:55:26.692Z,5.90
2023-10-06T08:57:54.562Z,6.90
2023-10-06T09:00:25.793Z,6.78
2023-10-06T09:02:55.742Z,9.30
2023-10-06T09:05:23.809Z,7.65
2023-10-06T09:08:08.415Z,5.88
2023-10-06T09:10:36.556Z,6.30
2023-10-06T09:13:08.456Z,7.38
2023-10-06T09:15:41.282Z,7.68
2023-10-06T09:18:21.416Z,6.53
2023-10-06T09:20:49.156Z,6.18
2023-10-06T09:23:32.851Z,7.13
2023-10-06T09:26:04.099Z,8.00
2023-10-06T09:28:32.418Z,7.75
2023-10-06T09:31:06.479Z,7.10
2023-10-06T09:33:39.996Z,7.22
2023-10-06T09:36:08.708Z,7.30
2023-10-06T09:38:45.679Z,7.25
2023-10-06T09:41:13.140Z,9.10
2023-10-06T09:43:41.260Z,8.38
2023-10-06T09:46:13.003Z,6.60
2023-10-06T09:48:41.097Z,10.27
2023-10-06T09:51:09.001Z,6.93
2023-10-06T09:53:39.840Z,6.22
2023-10-06T09:56:10.084Z,6.45
2023-10-06T09:58:38.428Z,7.40
2023-10-06T10:01:05.949Z,6.38
2023-10-06T10:03:35.521Z,6.40
2023-10-06T10:06:05.705Z,6.50
2023-10-06T10:08:36.564Z,7.85
2023-10-06T10:11:07.842Z,6.60
2023-10-06T10:14:04.664Z,8.05
2023-10-06T10:16:40.382Z,6.68
2023-10-06T10:19:09.124Z,5.20
2023-10-06T10:21:38.001Z,5.97
2023-10-06T10:24:45.384Z,5.72
2023-10-06T10:26:56.021Z,6.03
2023-10-06T10:29:25.441Z,5.03
2023-10-06T10:32:01.669Z,6.50
2023-10-06T10:34:35.745Z,6.72
2023-10-06T10:37:08.506Z,7.82
2023-10-06T10:39:45.654Z,6.63
2023-10-06T10:42:14.063Z,6.60
2023-10-06T10:44:41.900Z,5.60
2023-10-06T10:47:09.951Z,6.50
2023-10-06T10:49:37.233Z,9.63
2023-10-06T10:52:08.204Z,5.68
2023-10-06T10:54:37.576Z,5.38
2023-10-06T10:57:10.928Z,7.30
2023-10-06T10:59:57.759Z,6.28
2023-10-06T11:02:25.654Z,6.80
2023-10-06T11:04:53.374Z,6.05
2023-10-06T11:07:21.008Z,6.40
2023-10-06T11:09:48.345Z,7.55
2023-10-06T11:14:50.878Z,5.55
2023-10-06T11:17:25.787Z,4.90
2023-10-06T11:20:17.142Z,4.10
2023-10-06T11:22:57.655Z,5.35
2023-10-06T11:25:28.742Z,5.00
2023-10-06T11:27:56.835Z,4.53
2023-10-06T11:30:24.630Z,5.10
2023-10-06T11:32:52.803Z,5.18
2023-10-06T11:35:20.335Z,8.60
2023-10-06T11:37:49.593Z,5.53
2023-10-06T11:40:16.957Z,5.72
2023-10-06T11:42:45.164Z,7.32
2023-10-06T11:45:42.564Z,7.72
2023-10-06T11:48:25.715Z,4.95
2023-10-06T11:51:08.009Z,5.80
2023-10-06T11:53:36.578Z,5.82
2023-10-06T11:56:11.961Z,5.40
2023-10-06T12:01:29.003Z,6.10
2023-10-06T12:04:00.999Z,6.45
2023-10-06T12:06:44.139Z,6.53
2023-10-06T12:09:14.512Z,7.85
2023-10-06T12:11:42.180Z,11.15
2023-10-06T12:14:09.720Z,6.28
2023-10-06T12:16:37.628Z,6.90
2023-10-06T12:19:05.085Z,5.93
2023-10-06T12:21:32.290Z,6.57
2023-10-06T12:23:59.574Z,8.52
2023-10-06T12:26:27.479Z,8.95
2023-10-06T12:28:56.261Z,8.18
2023-10-06T12:31:23.682Z,9.70
2023-10-06T12:33:56.690Z,9.82
2023-10-06T12:36:24.515Z,6.93
2023-10-06T12:38:51.779Z,11.43
2023-10-06T12:41:19.410Z,6.43
2023-10-06T12:43:48.820Z,6.28
2023-10-06T12:46:17.086Z,15.73
2023-10-06T12:48:45.539Z,17.55
2023-10-06T12:51:13.519Z,15.98
2023-10-06T12:53:41.701Z,12.75
2023-10-06T12:56:10.737Z,12.27
2023-10-06T12:58:38.449Z,10.05
2023-10-06T13:01:09.432Z,6.90
2023-10-06T13:06:25.441Z,9.40
2023-10-06T13:08:52.671Z,8.27
2023-10-06T13:11:19.928Z,9.10
2023-10-06T13:13:50.649Z,6.68
2023-10-06T13:16:18.871Z,8.85
2023-10-06T13:18:46.245Z,6.03
2023-10-06T13:21:13.724Z,6.03
2023-10-06T13:23:40.986Z,5.82
2023-10-06T13:26:23.563Z,5.72
2023-10-06T13:28:54.876Z,5.95
2023-10-06T13:31:22.824Z,8.85
2023-10-06T13:33:50.399Z,12.45
2023-10-06T13:36:18.484Z,5.25
2023-10-06T13:38:45.765Z,6.00
2023-10-06T13:41:13.000Z,8.93
2023-10-06T13:43:40.181Z,9.55
2023-10-06T13:46:07.727Z,5.85
2023-10-06T13:48:35.974Z,6.82
2023-10-06T13:51:03.798Z,5.57
2023-10-06T13:53:31.357Z,5.93
2023-10-06T13:55:59.753Z,7.07
2023-10-06T13:58:27.808Z,9.80
2023-10-06T14:00:58.313Z,8.93
2023-10-06T14:03:26.037Z,5.82
2023-10-06T14:05:54.368Z,5.82
2023-10-06T14:08:22.231Z,6.30
2023-10-06T14:10:53.156Z,5.93
2023-10-06T14:13:29.135Z,6.38
2023-10-06T14:15:56.886Z,7.43
2023-10-06T14:18:26.529Z,6.10
2023-10-06T14:20:58.201Z,7.80
2023-10-06T14:23:31.021Z,6.15
2023-10-06T14:26:00.876Z,6.38
2023-10-06T14:28:31.925Z,6.70
2023-10-06T14:31:08.810Z,8.25
2023-10-06T14:33:45.978Z,8.82
2023-10-06T14:36:16.295Z,7.82
2023-10-06T14:38:43.446Z,8.68
2023-10-06T14:41:21.462Z,7.22
2023-10-06T14:44:08.252Z,8.13
2023-10-06T14:46:38.034Z,9.55
2023-10-06T14:49:06.812Z,7.10
2023-10-06T14:51:37.250Z,11.77
2023-10-06T14:54:05.161Z,7.82
2023-10-06T14:56:33.963Z,10.02
2023-10-06T14:59:01.513Z,9.93
2023-10-06T15:01:29.462Z,9.23
2023-10-06T15:04:05.718Z,9.63
2023-10-06T15:06:34.592Z,8.73
2023-10-06T15:09:01.872Z,7.55
2023-10-06T15:11:31.981Z,8.57
2023-10-06T15:13:59.183Z,7.90
2023-10-06T15:16:26.696Z,6.97
2023-10-06T15:18:55.058Z,7.18
2023-10-06T15:21:24.820Z,10.52
2023-10-06T15:23:54.562Z,9.40
2023-10-06T15:26:24.914Z,7.10
2023-10-06T15:28:52.162Z,6.40
2023-10-06T15:31:19.356Z,5.78
2023-10-06T15:33:46.543Z,10.93
2023-10-06T15:36:15.600Z,7.43
2023-10-06T15:38:43.901Z,7.75
2023-10-06T15:41:12.648Z,7.45
2023-10-06T15:43:40.092Z,7.43
2023-10-06T15:46:10.028Z,5.70
2023-10-06T15:48:39.408Z,6.63
2023-10-06T15:51:10.846Z,7.07
2023-10-06T15:53:39.724Z,7.38
2023-10-06T15:56:14.760Z,8.45
2023-10-06T15:58:43.436Z,7.32
2023-10-06T16:01:13.072Z,8.23
2023-10-06T16:03:42.291Z,7.18
2023-10-06T16:06:10.829Z,5.45
2023-10-06T16:08:39.392Z,6.30
2023-10-06T16:11:10.472Z,7.03
2023-10-06T16:13:44.920Z,5.95
2023-10-06T16:16:18.655Z,5.93
2023-10-06T16:18:47.914Z,5.82
2023-10-06T16:21:16.597Z,5.95
2023-10-06T16:23:44.374Z,4.78
2023-10-06T16:26:13.061Z,6.32
2023-10-06T16:28:40.785Z,7.53
2023-10-06T16:31:08.328Z,5.85
2023-10-06T16:33:39.297Z,4.78
2023-10-06T16:36:07.654Z,4.40
2023-10-06T16:38:35.121Z,6.07
2023-10-06T16:41:03.051Z,5.53
2023-10-06T16:43:30.525Z,5.50
2023-10-06T16:45:58.165Z,5.85
2023-10-06T16:48:25.451Z,7.47
2023-10-06T16:50:54.878Z,6.15
2023-10-06T16:53:22.356Z,6.25
2023-10-06T16:55:57.963Z,5.20
2023-10-06T17:00:54.369Z,6.38
2023-10-06T17:03:22.148Z,6.15
2023-10-06T17:05:49.687Z,5.43
2023-10-06T17:08:17.467Z,5.97
2023-10-06T17:10:46.107Z,5.68
2023-10-06T17:13:18.796Z,9.65
2023-10-06T17:15:52.089Z,5.75
2023-10-06T17:18:19.321Z,6.00
2023-10-06T17:20:46.986Z,4.72
2023-10-06T17:23:14.276Z,5.32
2023-10-06T17:25:41.442Z,6.22
2023-10-06T17:28:08.922Z,8.95
2023-10-06T17:30:37.411Z,6.20
2023-10-06T17:33:08.403Z,6.07
2023-10-06T17:35:35.917Z,5.25
2023-10-06T17:38:03.310Z,5.97
2023-10-06T17:40:31.391Z,5.20
2023-10-06T17:42:58.541Z,6.80
2023-10-06T17:45:26.632Z,4.22
2023-10-06T17:47:56.333Z,4.95
2023-10-06T17:50:24.019Z,6.13
2023-10-06T17:52:51.331Z,6.88
2023-10-06T17:55:18.989Z,8.60
2023-10-06T17:57:48.039Z,7.38
2023-10-06T18:00:17.459Z,5.80
2023-10-06T18:02:45.020Z,5.90
2023-10-06T18:05:12.437Z,5.18
2023-10-06T18:07:40.355Z,4.25
2023-10-06T18:10:09.432Z,4.35
2023-10-06T18:12:38.255Z,4.68
2023-10-06T18:15:06.739Z,5.13
2023-10-06T18:17:36.553Z,5.30
2023-10-06T18:20:04.532Z,3.95
2023-10-06T18:22:32.013Z,5.28
2023-10-06T18:24:59.248Z,5.70
2023-10-06T18:27:26.508Z,5.72
2023-10-06T18:29:53.707Z,7.13
2023-10-06T18:32:21.558Z,6.47
2023-10-06T18:34:48.941Z,5.05
2023-10-06T18:37:17.024Z,6.20
2023-10-06T18:39:47.556Z,4.35
2023-10-06T18:42:15.395Z,5.15
2023-10-06T18:44:42.908Z,4.32
2023-10-06T18:47:11.500Z,4.38
2023-10-06T18:49:39.753Z,4.55
2023-10-06T18:52:08.589Z,5.68
2023-10-06T18:54:36.853Z,4.18
2023-10-06T18:57:04.132Z,3.67
2023-10-06T18:59:31.306Z,6.57
2023-10-06T19:01:58.637Z,4.53
2023-10-06T19:04:26.053Z,4.55
2023-10-06T19:06:53.257Z,6.38
2023-10-06T19:09:20.414Z,3.70
2023-10-06T19:11:47.591Z,4.65
2023-10-06T19:14:15.953Z,5.30
2023-10-06T19:16:45.223Z,5.93
2023-10-06T19:19:12.709Z,4.45
2023-10-06T19:21:40.072Z,3.85
2023-10-06T19:24:08.414Z,5.10
2023-10-06T19:26:36.299Z,4.68
2023-10-06T19:29:03.942Z,4.18
2023-10-06T19:31:31.345Z,6.22
2023-10-06T19:33:58.599Z,3.95
2023-10-06T19:36:25.799Z,6.20
2023-10-06T19:38:54.502Z,4.82
2023-10-06T19:41:22.967Z,5.40
2023-10-06T19:43:50.254Z,5.82
2023-10-06T19:46:17.572Z,5.38
2023-10-06T19:48:47.236Z,5.95
2023-10-06T19:51:16.217Z,6.30
2023-10-06T19:53:43.526Z,6.00
2023-10-06T19:56:10.734Z,6.32
2023-10-06T19:58:38.026Z,7.53
2023-10-06T20:01:09.278Z,5.53
2023-10-06T20:03:36.805Z,5.70
2023-10-06T20:06:04.049Z,4.82
2023-10-06T20:08:31.709Z,6.50
2023-10-06T20:11:01.364Z,4.90
2023-10-06T20:13:30.179Z,8.85
2023-10-06T20:15:57.780Z,5.65
2023-10-06T20:18:25.086Z,7.15
2023-10-06T20:20:55.620Z,6.07
2023-10-06T20:23:22.815Z,4.72
2023-10-06T20:25:52.333Z,4.82
2023-10-06T20:28:20.559Z,6.85
2023-10-06T20:30:47.889Z,5.75
2023-10-06T20:33:15.175Z,4.80
2023-10-06T20:35:43.303Z,4.35
2023-10-06T20:38:10.574Z,4.95
2023-10-06T20:40:39.065Z,4.78
2023-10-06T20:43:09.104Z,12.52
2023-10-06T20:45:38.063Z,4.57
2023-10-06T20:48:07.175Z,5.30
2023-10-06T20:50:39.882Z,5.85
2023-10-06T20:53:10.332Z,4.80
2023-10-06T20:55:37.738Z,4.35
2023-10-06T20:58:05.202Z,5.65
2023-10-06T21:00:32.457Z,3.90
2023-10-06T21:03:00.061Z,5.43
2023-10-06T21:05:28.571Z,5.72
2023-10-06T21:07:56.132Z,5.43
2023-10-06T21:10:27.227Z,7.00
2023-10-06T21:12:54.803Z,3.78
2023-10-06T21:15:24.772Z,4.35
2023-10-06T21:17:55.802Z,5.03
2023-10-06T21:20:23.469Z,4.90
2023-10-06T21:22:51.337Z,4.68
2023-10-06T21:25:18.978Z,5.80
2023-10-06T21:27:47.065Z,4.15
2023-10-06T21:30:18.135Z,4.43
2023-10-06T21:32:46.125Z,3.92
2023-10-06T21:35:14.920Z,4.97
2023-10-06T21:37:42.182Z,4.68
2023-10-06T21:40:09.946Z,4.60
2023-10-06T21:42:37.208Z,5.60
2023-10-06T21:45:07.107Z,5.60
2023-10-06T21:47:34.824Z,3.95
2023-10-06T21:50:02.171Z,4.03
2023-10-06T21:52:30.303Z,5.07
2023-10-06T21:54:57.884Z,4.68
2023-10-06T21:57:26.716Z,5.30
2023-10-06T21:59:54.140Z,4.70
2023-10-06T22:02:22.636Z,4.13
2023-10-06T22:04:49.921Z,4.38
2023-10-06T22:07:17.101Z,4.30
2023-10-06T22:09:47.152Z,4.05
2023-10-06T22:12:14.382Z,7.07
2023-10-06T22:14:43.753Z,4.95
2023-10-06T22:17:13.908Z,4.25
2023-10-06T22:19:42.110Z,4.00
2023-10-06T22:22:11.462Z,3.67
2023-10-06T22:24:38.713Z,5.63
2023-10-06T22:27:08.111Z,4.00
2023-10-06T22:29:35.790Z,7.22
2023-10-06T22:32:05.204Z,4.45
2023-10-06T22:34:33.135Z,4.70
2023-10-06T22:37:05.275Z,5.60
2023-10-06T22:39:36.601Z,4.47
2023-10-06T22:42:05.061Z,4.28
2023-10-06T22:44:32.228Z,3.47
2023-10-06T22:46:59.572Z,5.88
2023-10-06T22:49:26.820Z,4.80
2023-10-06T22:51:54.668Z,4.95
2023-10-06T22:54:21.852Z,4.13
2023-10-06T22:56:49.165Z,4.68
2023-10-06T22:59:16.960Z,3.78
2023-10-06T23:01:45.328Z,4.65
2023-10-06T23:04:13.170Z,5.30
2023-10-06T23:06:40.715Z,4.10
2023-10-06T23:09:07.913Z,5.80
2023-10-06T23:11:37.275Z,4.22
2023-10-06T23:14:07.596Z,3.25
2023-10-06T23:16:35.901Z,4.10
2023-10-06T23:19:06.576Z,3.92
2023-10-06T23:21:35.268Z,5.03
2023-10-06T23:24:09.394Z,3.80
2023-10-06T23:26:37.374Z,3.97
2023-10-06T23:29:05.866Z,3.97
2023-10-06T23:31:34.012Z,3.95
2023-10-06T23:34:01.495Z,3.58
2023-10-06T23:36:28.705Z,3.33
2023-10-06T23:38:55.919Z,4.00
2023-10-06T23:41:23.760Z,5.32
2023-10-06T23:43:51.004Z,4.15
2023-10-06T23:46:18.258Z,3.70
2023-10-06T23:48:52.835Z,4.40
2023-10-06T23:51:22.077Z,4.57
2023-10-06T23:53:53.003Z,4.20
2023-10-06T23:56:31.833Z,3.70
2023-10-06T23:58:59.732Z,4.20
